createdAt,value
2019-03-06T00:00:51.775Z,1006.49
2019-03-06T00:01:51.823Z,1006.53
2019-03-06T00:02:51.755Z,1006.53
2019-03-06T00:03:51.741Z,1006.56
2019-03-06T00:04:51.726Z,1006.59
2019-03-06T00:05:51.714Z,1006.61
2019-03-06T00:06:51.704Z,1006.63
2019-03-06T00:07:51.705Z,1006.61
2019-03-06T00:08:51.719Z,1006.56
2019-03-06T00:09:51.670Z,1006.55
2019-03-06T00:10:51.661Z,1006.55
2019-03-06T00:11:51.653Z,1006.54
2019-03-06T00:12:51.704Z,1006.59
2019-03-06T00:13:51.633Z,1006.60
2019-03-06T00:14:51.641Z,1006.62
2019-03-06T00:15:51.637Z,1006.59
2019-03-06T00:16:51.598Z,1006.57
2019-03-06T00:17:51.590Z,1006.54
2019-03-06T00:18:51.666Z,1006.64
2019-03-06T00:19:51.568Z,1006.51
2019-03-06T00:20:51.555Z,1006.51
2019-03-06T00:21:51.545Z,1006.53
2019-03-06T00:22:51.533Z,1006.49
2019-03-06T00:23:51.526Z,1006.48
2019-03-06T00:24:51.561Z,1006.51
2019-03-06T00:25:51.501Z,1006.54
2019-03-06T00:26:51.486Z,1006.54
2019-03-06T00:27:51.478Z,1006.49
2019-03-06T00:28:51.560Z,1006.47
2019-03-06T00:29:51.456Z,1006.53
2019-03-06T00:30:51.449Z,1006.59
2019-03-06T00:32:40.386Z,1006.59
2019-03-06T00:33:40.367Z,1006.59
2019-03-06T00:34:40.395Z,1006.61
2019-03-06T00:35:40.349Z,1006.53
2019-03-06T00:36:40.337Z,1006.57
2019-03-06T00:37:40.328Z,1006.56
2019-03-06T00:38:40.315Z,1006.58
2019-03-06T00:39:40.342Z,1006.55
2019-03-06T00:40:40.298Z,1006.62
2019-03-06T00:41:40.282Z,1006.59
2019-03-06T00:42:40.274Z,1006.62
2019-03-06T00:43:40.260Z,1006.61
2019-03-06T00:44:40.284Z,1006.62
2019-03-06T00:45:40.241Z,1006.61
2019-03-06T00:46:40.228Z,1006.65
2019-03-06T00:47:40.214Z,1006.66
2019-03-06T00:48:40.202Z,1006.69
2019-03-06T00:49:40.204Z,1006.67
2019-03-06T00:50:40.252Z,1006.67
2019-03-06T00:51:40.178Z,1006.68
2019-03-06T00:52:40.163Z,1006.66
2019-03-06T00:53:40.146Z,1006.66
2019-03-06T00:54:40.136Z,1006.65
2019-03-06T00:55:40.131Z,1006.72
2019-03-06T00:56:40.132Z,1006.72
2019-03-06T00:57:40.108Z,1006.71
2019-03-06T00:58:40.091Z,1006.70
2019-03-06T00:59:40.086Z,1006.70
2019-03-06T01:00:40.074Z,1006.65
2019-03-06T01:01:40.074Z,1006.69
2019-03-06T01:02:40.052Z,1006.65
2019-03-06T01:03:40.036Z,1006.65
2019-03-06T01:04:40.030Z,1006.69
2019-03-06T01:05:40.059Z,1006.67
2019-03-06T01:06:40.082Z,1006.63
2019-03-06T01:07:39.994Z,1006.65
2019-03-06T01:08:39.982Z,1006.71
2019-03-06T01:09:39.971Z,1006.67
2019-03-06T01:10:39.964Z,1006.74
2019-03-06T01:11:40.022Z,1006.74
2019-03-06T01:12:39.942Z,1006.78
2019-03-06T01:13:39.934Z,1006.77
2019-03-06T01:14:39.920Z,1006.73
2019-03-06T01:15:39.912Z,1006.76
2019-03-06T01:16:39.899Z,1006.79
2019-03-06T01:17:39.948Z,1006.84
2019-03-06T01:18:39.876Z,1006.81
2019-03-06T01:19:39.859Z,1006.84
2019-03-06T01:20:39.850Z,1006.80
2019-03-06T01:21:39.843Z,1006.85
2019-03-06T01:22:39.864Z,1006.86
2019-03-06T01:23:39.821Z,1006.84
2019-03-06T01:24:39.804Z,1006.86
2019-03-06T01:25:39.801Z,1006.89
2019-03-06T01:26:39.784Z,1006.87
2019-03-06T01:27:39.787Z,1006.88
2019-03-06T01:28:39.770Z,1006.89
2019-03-06T01:29:39.751Z,1006.80
2019-03-06T01:30:39.765Z,1006.84
2019-03-06T01:31:39.728Z,1006.88
2019-03-06T01:32:39.755Z,1006.89
2019-03-06T01:33:39.706Z,1006.88
2019-03-06T01:34:39.698Z,1006.88
2019-03-06T01:35:39.684Z,1006.92
2019-03-06T01:36:39.678Z,1006.87
2019-03-06T01:37:39.676Z,1006.85
2019-03-06T01:38:39.688Z,1006.86
2019-03-06T01:39:39.640Z,1006.87
2019-03-06T01:40:39.633Z,1006.84
2019-03-06T01:41:39.620Z,1006.86
2019-03-06T01:42:39.621Z,1006.81
2019-03-06T01:43:39.612Z,1006.84
2019-03-06T01:44:39.590Z,1006.87
2019-03-06T01:45:39.573Z,1006.85
2019-03-06T01:46:39.573Z,1006.87
2019-03-06T01:47:39.593Z,1006.86
2019-03-06T01:48:39.548Z,1006.86
2019-03-06T01:49:39.536Z,1006.85
2019-03-06T01:50:39.524Z,1006.88
2019-03-06T01:51:39.512Z,1006.92
2019-03-06T01:52:39.504Z,1006.89
2019-03-06T01:53:39.506Z,1006.88
2019-03-06T01:54:39.513Z,1006.85
2019-03-06T01:55:39.469Z,1006.86
2019-03-06T01:56:39.452Z,1006.93
2019-03-06T01:57:39.442Z,1006.91
2019-03-06T01:58:39.435Z,1006.92
2019-03-06T01:59:39.459Z,1006.96
2019-03-06T02:00:39.419Z,1006.98
2019-03-06T02:01:39.402Z,1007.00
2019-03-06T02:02:39.392Z,1006.96
2019-03-06T02:03:39.401Z,1006.94
2019-03-06T02:04:39.364Z,1006.93
2019-03-06T02:05:39.370Z,1007.00
2019-03-06T02:06:39.341Z,1006.95
2019-03-06T02:07:39.406Z,1006.97
2019-03-06T02:08:39.330Z,1006.93
2019-03-06T02:09:39.309Z,1007.00
2019-03-06T02:10:39.305Z,1006.97
2019-03-06T02:11:39.288Z,1006.92
2019-03-06T02:12:39.276Z,1006.89
2019-03-06T02:13:39.295Z,1006.96
2019-03-06T02:14:39.259Z,1006.92
2019-03-06T02:15:39.249Z,1006.94
2019-03-06T02:16:39.273Z,1006.87
2019-03-06T02:17:39.222Z,1006.89
2019-03-06T02:18:39.249Z,1006.95
2019-03-06T02:19:39.205Z,1006.96
2019-03-06T02:20:39.193Z,1006.97
2019-03-06T02:21:39.186Z,1006.93
2019-03-06T02:22:39.171Z,1006.96
2019-03-06T02:23:39.196Z,1007.01
2019-03-06T02:24:39.152Z,1007.01
2019-03-06T02:25:39.137Z,1007.01
2019-03-06T02:26:39.142Z,1007.00
2019-03-06T02:27:39.115Z,1007.00
2019-03-06T02:28:39.114Z,1006.98
2019-03-06T02:29:39.090Z,1007.00
2019-03-06T02:30:39.180Z,1007.08
2019-03-06T02:31:39.072Z,1007.02
2019-03-06T02:32:39.065Z,1007.09
2019-03-06T02:33:40.060Z,1007.10
2019-03-06T02:34:39.038Z,1007.09
2019-03-06T02:35:39.042Z,1007.10
2019-03-06T02:36:39.015Z,1007.11
2019-03-06T02:37:39.001Z,1007.10
2019-03-06T02:38:38.996Z,1007.11
2019-03-06T02:39:38.995Z,1007.04
2019-03-06T02:40:38.975Z,1007.07
2019-03-06T02:41:38.962Z,1007.00
2019-03-06T02:42:38.965Z,1007.06
2019-03-06T02:43:38.988Z,1007.05
2019-03-06T02:44:40.045Z,1007.09
2019-03-06T02:45:38.943Z,1007.12
2019-03-06T02:46:38.904Z,1007.08
2019-03-06T02:47:38.897Z,1007.10
2019-03-06T02:48:38.880Z,1007.12
2019-03-06T02:49:38.910Z,1007.09
2019-03-06T02:50:38.863Z,1007.10
2019-03-06T02:51:38.849Z,1007.08
2019-03-06T02:52:38.862Z,1007.11
2019-03-06T02:53:38.900Z,1007.10
2019-03-06T02:54:38.820Z,1007.13
2019-03-06T02:55:38.843Z,1007.13
2019-03-06T02:56:38.792Z,1007.13
2019-03-06T02:57:38.781Z,1007.12
2019-03-06T02:58:38.866Z,1007.12
2019-03-06T02:59:38.779Z,1007.10
2019-03-06T03:00:38.758Z,1007.13
2019-03-06T03:01:38.748Z,1007.10
2019-03-06T03:02:38.729Z,1007.08
2019-03-06T03:03:38.714Z,1007.10
2019-03-06T03:04:38.783Z,1007.10
2019-03-06T03:05:38.697Z,1007.08
2019-03-06T03:06:38.691Z,1007.08
2019-03-06T03:07:38.677Z,1007.09
2019-03-06T03:08:38.664Z,1007.15
2019-03-06T03:09:38.663Z,1007.13
2019-03-06T03:10:38.648Z,1007.18
2019-03-06T03:11:38.666Z,1007.12
2019-03-06T03:12:38.619Z,1007.17
2019-03-06T03:13:38.621Z,1007.12
2019-03-06T03:14:38.633Z,1007.20
2019-03-06T03:15:38.584Z,1007.14
2019-03-06T03:16:38.612Z,1007.22
2019-03-06T03:17:38.562Z,1007.09
2019-03-06T03:18:38.565Z,1007.14
2019-03-06T03:19:38.562Z,1007.13
2019-03-06T03:20:38.531Z,1007.14
2019-03-06T03:21:38.556Z,1007.16
2019-03-06T03:22:38.509Z,1007.13
2019-03-06T03:23:38.499Z,1007.16
2019-03-06T03:24:38.547Z,1007.17
2019-03-06T03:25:38.474Z,1007.17
2019-03-06T03:26:38.479Z,1007.18
2019-03-06T03:27:38.456Z,1007.15
2019-03-06T03:28:38.444Z,1007.16
2019-03-06T03:29:38.434Z,1007.15
2019-03-06T03:30:38.455Z,1007.16
2019-03-06T03:31:38.412Z,1007.16
2019-03-06T03:32:38.438Z,1007.17
2019-03-06T03:33:38.420Z,1007.16
2019-03-06T03:34:38.379Z,1007.17
2019-03-06T03:35:38.363Z,1007.18
2019-03-06T03:36:38.355Z,1007.20
2019-03-06T03:37:38.340Z,1007.17
2019-03-06T03:38:38.368Z,1007.19
2019-03-06T03:39:38.318Z,1007.19
2019-03-06T03:40:38.330Z,1007.25
2019-03-06T03:41:38.300Z,1007.22
2019-03-06T03:42:38.292Z,1007.23
2019-03-06T03:43:38.317Z,1007.23
2019-03-06T03:44:38.263Z,1007.26
2019-03-06T03:45:38.257Z,1007.24
2019-03-06T03:46:38.239Z,1007.23
2019-03-06T03:47:38.231Z,1007.25
2019-03-06T03:48:38.220Z,1007.22
2019-03-06T03:49:38.249Z,1007.23
2019-03-06T03:50:38.204Z,1007.25
2019-03-06T03:51:38.191Z,1007.19
2019-03-06T03:52:38.179Z,1007.17
2019-03-06T03:53:38.166Z,1007.16
2019-03-06T03:54:38.203Z,1007.24
2019-03-06T03:55:38.231Z,1007.20
2019-03-06T03:56:38.146Z,1007.22
2019-03-06T03:57:38.166Z,1007.22
2019-03-06T03:58:38.119Z,1007.16
2019-03-06T03:59:38.120Z,1007.20
2019-03-06T04:00:38.101Z,1007.20
2019-03-06T04:01:38.076Z,1007.19
2019-03-06T04:02:38.121Z,1007.22
2019-03-06T04:03:38.057Z,1007.19
2019-03-06T04:04:38.049Z,1007.17
2019-03-06T04:05:38.047Z,1007.12
2019-03-06T04:06:38.023Z,1007.15
2019-03-06T04:07:38.068Z,1007.15
2019-03-06T04:08:38.004Z,1007.17
2019-03-06T04:09:37.988Z,1007.18
2019-03-06T04:10:37.998Z,1007.21
2019-03-06T04:11:37.971Z,1007.24
2019-03-06T04:12:37.975Z,1007.22
2019-03-06T04:13:38.030Z,1007.18
2019-03-06T04:14:38.035Z,1007.20
2019-03-06T04:15:37.925Z,1007.19
2019-03-06T04:16:37.956Z,1007.22
2019-03-06T04:17:37.904Z,1007.26
2019-03-06T04:18:37.895Z,1007.28
2019-03-06T04:19:37.881Z,1007.23
2019-03-06T04:20:37.864Z,1007.27
2019-03-06T04:21:37.858Z,1007.30
2019-03-06T04:22:37.853Z,1007.25
2019-03-06T04:23:37.843Z,1007.29
2019-03-06T04:24:37.821Z,1007.29
2019-03-06T04:25:37.808Z,1007.26
2019-03-06T04:26:37.803Z,1007.27
2019-03-06T04:27:37.861Z,1007.24
2019-03-06T04:28:37.781Z,1007.27
2019-03-06T04:29:37.764Z,1007.21
2019-03-06T04:30:37.758Z,1007.24
2019-03-06T04:31:37.742Z,1007.25
2019-03-06T04:32:37.734Z,1007.28
2019-03-06T04:33:37.773Z,1007.27
2019-03-06T04:34:37.716Z,1007.26
2019-03-06T04:35:37.698Z,1007.27
2019-03-06T04:36:37.689Z,1007.27
2019-03-06T04:37:37.674Z,1007.28
2019-03-06T04:38:37.671Z,1007.26
2019-03-06T04:39:37.691Z,1007.27
2019-03-06T04:40:37.707Z,1007.32
2019-03-06T04:41:37.632Z,1007.28
2019-03-06T04:42:37.633Z,1007.27
2019-03-06T04:43:37.610Z,1007.24
2019-03-06T04:44:37.627Z,1007.28
2019-03-06T04:45:37.593Z,1007.31
2019-03-06T04:46:37.581Z,1007.30
2019-03-06T04:47:37.564Z,1007.28
2019-03-06T04:48:37.555Z,1007.30
2019-03-06T04:49:37.563Z,1007.29
2019-03-06T04:50:37.573Z,1007.31
2019-03-06T04:51:37.522Z,1007.35
2019-03-06T04:52:37.514Z,1007.34
2019-03-06T04:53:37.506Z,1007.32
2019-03-06T04:54:37.492Z,1007.30
2019-03-06T04:55:37.502Z,1007.33
2019-03-06T04:56:37.473Z,1007.32
2019-03-06T04:57:37.456Z,1007.30
2019-03-06T04:58:37.449Z,1007.27
2019-03-06T04:59:37.438Z,1007.25
2019-03-06T05:00:37.487Z,1007.25
2019-03-06T05:01:37.416Z,1007.23
2019-03-06T05:02:37.405Z,1007.26
2019-03-06T05:03:37.389Z,1007.28
2019-03-06T05:04:37.378Z,1007.26
2019-03-06T05:05:37.422Z,1007.23
2019-03-06T05:06:37.360Z,1007.21
2019-03-06T05:07:37.343Z,1007.20
2019-03-06T05:08:37.334Z,1007.19
2019-03-06T05:09:37.327Z,1007.18
2019-03-06T05:10:37.315Z,1007.19
2019-03-06T05:11:37.355Z,1007.21
2019-03-06T05:12:37.290Z,1007.21
2019-03-06T05:13:37.284Z,1007.19
2019-03-06T05:14:37.274Z,1007.20
2019-03-06T05:15:37.261Z,1007.21
2019-03-06T05:16:37.251Z,1007.23
2019-03-06T05:17:37.272Z,1007.23
2019-03-06T05:18:37.223Z,1007.24
2019-03-06T05:19:37.217Z,1007.25
2019-03-06T05:20:37.206Z,1007.29
2019-03-06T05:21:37.210Z,1007.32
2019-03-06T05:22:37.186Z,1007.30
2019-03-06T05:23:37.169Z,1007.26
2019-03-06T05:24:37.159Z,1007.33
2019-03-06T05:25:37.152Z,1007.36
2019-03-06T05:26:37.175Z,1007.36
2019-03-06T05:27:37.137Z,1007.35
2019-03-06T05:28:37.139Z,1007.38
2019-03-06T05:29:37.106Z,1007.38
2019-03-06T05:30:37.093Z,1007.39
2019-03-06T05:31:37.082Z,1007.39
2019-03-06T05:32:37.076Z,1007.36
2019-03-06T05:33:37.105Z,1007.34
2019-03-06T05:34:37.047Z,1007.35
2019-03-06T05:35:37.039Z,1007.34
2019-03-06T05:36:37.026Z,1007.35
2019-03-06T05:37:37.015Z,1007.25
2019-03-06T05:38:37.007Z,1007.34
2019-03-06T05:39:37.029Z,1007.30
2019-03-06T05:40:36.990Z,1007.32
2019-03-06T05:41:36.976Z,1007.34
2019-03-06T05:42:37.033Z,1007.28
2019-03-06T05:43:36.949Z,1007.27
2019-03-06T05:44:36.942Z,1007.31
2019-03-06T05:45:36.934Z,1007.31
2019-03-06T05:46:36.925Z,1007.32
2019-03-06T05:47:36.907Z,1007.35
2019-03-06T05:48:36.921Z,1007.35
2019-03-06T05:49:36.886Z,1007.34
2019-03-06T05:50:36.874Z,1007.32
2019-03-06T05:51:36.866Z,1007.36
2019-03-06T05:52:36.853Z,1007.37
2019-03-06T05:53:36.889Z,1007.35
2019-03-06T05:54:36.826Z,1007.40
2019-03-06T05:55:36.818Z,1007.43
2019-03-06T05:56:36.810Z,1007.43
2019-03-06T05:57:36.796Z,1007.42
2019-03-06T05:58:36.832Z,1007.47
2019-03-06T05:59:36.773Z,1007.46
2019-03-06T06:00:36.763Z,1007.53
2019-03-06T06:01:36.754Z,1007.46
2019-03-06T06:02:36.748Z,1007.52
2019-03-06T06:03:36.797Z,1007.50
2019-03-06T06:04:36.715Z,1007.45
2019-03-06T06:05:36.702Z,1007.41
2019-03-06T06:06:36.699Z,1007.40
2019-03-06T06:07:36.686Z,1007.35
2019-03-06T06:08:36.671Z,1007.35
2019-03-06T06:09:36.685Z,1007.36
2019-03-06T06:10:36.647Z,1007.37
2019-03-06T06:11:36.707Z,1007.39
2019-03-06T06:12:36.633Z,1007.41
2019-03-06T06:13:36.624Z,1007.33
2019-03-06T06:14:36.602Z,1007.32
2019-03-06T06:15:36.593Z,1007.31
2019-03-06T06:16:36.581Z,1007.25
2019-03-06T06:17:36.584Z,1007.31
2019-03-06T06:18:36.564Z,1007.28
2019-03-06T06:19:36.547Z,1007.34
2019-03-06T06:20:36.551Z,1007.33
2019-03-06T06:21:36.529Z,1007.28
2019-03-06T06:22:36.519Z,1007.30
2019-03-06T06:23:36.502Z,1007.31
2019-03-06T06:24:36.502Z,1007.37
2019-03-06T06:25:36.518Z,1007.37
2019-03-06T06:26:36.468Z,1007.33
2019-03-06T06:27:36.496Z,1007.40
2019-03-06T06:28:36.452Z,1007.34
2019-03-06T06:29:36.444Z,1007.35
2019-03-06T06:30:36.426Z,1007.32
2019-03-06T06:31:36.416Z,1007.29
2019-03-06T06:32:36.459Z,1007.30
2019-03-06T06:33:36.392Z,1007.28
2019-03-06T06:34:36.387Z,1007.31
2019-03-06T06:35:36.408Z,1007.28
2019-03-06T06:36:36.365Z,1007.30
2019-03-06T06:37:36.386Z,1007.30
2019-03-06T06:38:37.496Z,1007.29
2019-03-06T06:39:36.332Z,1007.27
2019-03-06T06:40:36.322Z,1007.24
2019-03-06T06:41:36.306Z,1007.32
2019-03-06T06:42:36.295Z,1007.34
2019-03-06T06:43:36.323Z,1007.34
2019-03-06T06:44:36.278Z,1007.38
2019-03-06T06:45:36.261Z,1007.41
2019-03-06T06:46:36.255Z,1007.40
2019-03-06T06:47:36.240Z,1007.40
2019-03-06T06:48:36.272Z,1007.38
2019-03-06T06:49:36.221Z,1007.36
2019-03-06T06:50:36.209Z,1007.29
2019-03-06T06:51:36.196Z,1007.33
2019-03-06T06:52:36.184Z,1007.31
2019-03-06T06:53:36.174Z,1007.29
2019-03-06T06:54:36.191Z,1007.29
2019-03-06T06:55:36.156Z,1007.26
2019-03-06T06:56:36.141Z,1007.28
2019-03-06T06:57:36.135Z,1007.22
2019-03-06T06:58:36.116Z,1007.25
2019-03-06T06:59:36.140Z,1007.21
2019-03-06T07:00:36.120Z,1007.21
2019-03-06T07:01:36.095Z,1007.22
2019-03-06T07:02:36.078Z,1007.16
2019-03-06T07:03:36.063Z,1007.15
2019-03-06T07:04:36.079Z,1007.13
2019-03-06T07:05:36.047Z,1007.13
2019-03-06T07:06:36.035Z,1007.16
2019-03-06T07:07:36.019Z,1007.14
2019-03-06T07:08:36.014Z,1007.21
2019-03-06T07:09:36.034Z,1007.17
2019-03-06T07:10:35.986Z,1007.25
2019-03-06T07:11:35.980Z,1007.30
2019-03-06T07:12:35.969Z,1007.29
2019-03-06T07:13:36.001Z,1007.29
2019-03-06T07:14:36.014Z,1007.32
2019-03-06T07:15:35.943Z,1007.29
2019-03-06T07:16:35.925Z,1007.28
2019-03-06T07:17:35.915Z,1007.27
2019-03-06T07:18:35.896Z,1007.30
2019-03-06T07:19:35.900Z,1007.30
2019-03-06T07:20:35.896Z,1007.32
2019-03-06T07:21:35.870Z,1007.22
2019-03-06T07:22:35.856Z,1007.27
2019-03-06T07:23:35.848Z,1007.23
2019-03-06T07:24:35.837Z,1007.25
2019-03-06T07:25:35.871Z,1007.23
2019-03-06T07:26:35.863Z,1007.24
2019-03-06T07:27:35.802Z,1007.19
2019-03-06T07:28:35.794Z,1007.17
2019-03-06T07:29:35.780Z,1007.19
2019-03-06T07:30:35.772Z,1007.16
2019-03-06T07:31:35.774Z,1007.13
2019-03-06T07:32:35.743Z,1007.11
2019-03-06T07:33:35.732Z,1007.16
2019-03-06T07:34:35.719Z,1007.16
2019-03-06T07:35:35.717Z,1007.14
2019-03-06T07:36:35.715Z,1007.13
2019-03-06T07:37:35.709Z,1007.16
2019-03-06T07:38:35.677Z,1007.14
2019-03-06T07:39:35.672Z,1007.18
2019-03-06T07:40:35.662Z,1007.17
2019-03-06T07:41:35.657Z,1007.23
2019-03-06T07:42:35.644Z,1007.18
2019-03-06T07:43:35.624Z,1007.18
2019-03-06T07:44:35.613Z,1007.15
2019-03-06T07:45:35.633Z,1007.18
2019-03-06T07:46:35.603Z,1007.21
2019-03-06T07:47:35.597Z,1007.19
2019-03-06T07:48:35.571Z,1007.26
2019-03-06T07:49:44.726Z,1007.28
2019-03-06T07:50:36.543Z,1007.25
2019-03-06T07:51:35.536Z,1007.28
2019-03-06T07:52:35.550Z,1007.25
2019-03-06T07:53:35.512Z,1007.25
2019-03-06T07:54:35.523Z,1007.26
2019-03-06T07:55:35.505Z,1007.29
2019-03-06T07:56:35.483Z,1007.27
2019-03-06T07:57:35.472Z,1007.25
2019-03-06T07:58:35.467Z,1007.18
2019-03-06T07:59:35.460Z,1007.17
2019-03-06T08:00:35.474Z,1007.19
2019-03-06T08:01:35.439Z,1007.18
2019-03-06T08:02:35.415Z,1007.17
2019-03-06T08:03:35.409Z,1007.16
2019-03-06T08:04:35.391Z,1007.17
2019-03-06T08:05:35.394Z,1007.18
2019-03-06T08:06:35.377Z,1007.17
2019-03-06T08:07:35.364Z,1007.13
2019-03-06T08:08:35.349Z,1007.16
2019-03-06T08:09:35.375Z,1007.12
2019-03-06T08:10:35.658Z,1007.13
2019-03-06T08:11:36.141Z,1007.15
2019-03-06T08:12:35.305Z,1007.11
2019-03-06T08:13:35.293Z,1007.15
2019-03-06T08:14:35.279Z,1007.15
2019-03-06T08:15:35.310Z,1007.11
2019-03-06T08:16:35.259Z,1007.16
2019-03-06T08:17:35.265Z,1007.12
2019-03-06T08:18:35.239Z,1007.17
2019-03-06T08:19:35.238Z,1007.15
2019-03-06T08:20:35.214Z,1007.17
2019-03-06T08:21:35.243Z,1007.10
2019-03-06T08:22:35.195Z,1007.08
2019-03-06T08:23:35.192Z,1007.10
2019-03-06T08:24:35.176Z,1007.13
2019-03-06T08:25:35.158Z,1007.08
2019-03-06T08:26:35.187Z,1007.03
2019-03-06T08:27:35.137Z,1007.13
2019-03-06T08:28:35.127Z,1007.08
2019-03-06T08:29:35.123Z,1007.08
2019-03-06T08:30:35.109Z,1007.04
2019-03-06T08:31:35.131Z,1007.05
2019-03-06T08:32:35.122Z,1007.04
2019-03-06T08:33:35.077Z,1007.05
2019-03-06T08:34:35.071Z,1007.01
2019-03-06T08:35:35.058Z,1007.03
2019-03-06T08:36:35.077Z,1006.97
2019-03-06T08:37:35.035Z,1006.97
2019-03-06T08:38:35.017Z,1006.98
2019-03-06T08:39:35.009Z,1006.89
2019-03-06T08:40:34.992Z,1006.91
2019-03-06T08:41:34.986Z,1006.87
2019-03-06T08:42:35.006Z,1006.84
2019-03-06T08:43:34.962Z,1006.81
2019-03-06T08:44:34.955Z,1006.86
2019-03-06T08:45:34.941Z,1006.84
2019-03-06T08:46:34.933Z,1006.80
2019-03-06T08:47:34.941Z,1006.82
2019-03-06T08:48:34.917Z,1006.80
2019-03-06T08:49:34.904Z,1006.82
2019-03-06T08:50:34.880Z,1006.83
2019-03-06T08:51:34.874Z,1006.76
2019-03-06T08:52:34.897Z,1006.79
2019-03-06T08:53:34.887Z,1006.84
2019-03-06T08:54:34.837Z,1006.79
2019-03-06T08:55:34.827Z,1006.78
2019-03-06T08:56:34.817Z,1006.74
2019-03-06T08:57:34.810Z,1006.74
2019-03-06T08:58:34.847Z,1006.74
2019-03-06T08:59:34.781Z,1006.71
2019-03-06T09:00:34.775Z,1006.69
2019-03-06T09:01:34.767Z,1006.68
2019-03-06T09:02:34.778Z,1006.70
2019-03-06T09:03:34.812Z,1006.67
2019-03-06T09:04:34.736Z,1006.62
2019-03-06T09:05:34.721Z,1006.64
2019-03-06T09:06:34.709Z,1006.64
2019-03-06T09:07:34.701Z,1006.66
2019-03-06T09:08:34.688Z,1006.66
2019-03-06T09:09:34.710Z,1006.63
2019-03-06T09:10:34.665Z,1006.65
2019-03-06T09:11:34.655Z,1006.59
2019-03-06T09:12:34.645Z,1006.61
2019-03-06T09:13:34.633Z,1006.57
2019-03-06T09:14:34.689Z,1006.57
2019-03-06T09:15:34.608Z,1006.56
2019-03-06T09:16:34.595Z,1006.45
2019-03-06T09:17:34.591Z,1006.47
2019-03-06T09:18:34.575Z,1006.47
2019-03-06T09:19:34.564Z,1006.42
2019-03-06T09:20:37.361Z,1006.36
2019-03-06T09:21:34.538Z,1006.33
2019-03-06T09:22:34.540Z,1006.25
2019-03-06T09:23:34.516Z,1006.29
2019-03-06T09:24:34.558Z,1006.30
2019-03-06T09:25:34.498Z,1006.24
2019-03-06T09:26:34.483Z,1006.20
2019-03-06T09:27:34.483Z,1006.19
2019-03-06T09:28:34.472Z,1006.24
2019-03-06T09:29:34.452Z,1006.25
2019-03-06T09:30:34.492Z,1006.23
2019-03-06T09:31:34.431Z,1006.20
2019-03-06T09:32:34.428Z,1006.22
2019-03-06T09:33:34.414Z,1006.15
2019-03-06T09:34:34.399Z,1006.14
2019-03-06T09:35:34.420Z,1006.11
2019-03-06T09:36:34.377Z,1006.11
2019-03-06T09:37:34.385Z,1006.14
2019-03-06T09:38:34.349Z,1006.06
2019-03-06T09:39:34.351Z,1006.11
2019-03-06T09:40:34.364Z,1006.12
2019-03-06T09:41:34.325Z,1006.15
2019-03-06T09:42:34.314Z,1006.11
2019-03-06T09:43:34.295Z,1006.03
2019-03-06T09:44:34.284Z,1006.02
2019-03-06T09:45:34.272Z,1005.99
2019-03-06T09:46:34.301Z,1005.99
2019-03-06T09:47:34.258Z,1005.94
2019-03-06T09:48:34.247Z,1005.97
2019-03-06T09:49:34.237Z,1005.94
2019-03-06T09:50:34.229Z,1005.94
2019-03-06T09:51:34.216Z,1005.95
2019-03-06T09:52:34.269Z,1005.92
2019-03-06T09:53:34.190Z,1005.91
2019-03-06T09:54:34.175Z,1005.89
2019-03-06T09:55:34.164Z,1005.90
2019-03-06T09:56:34.162Z,1005.98
2019-03-06T09:57:34.138Z,1006.03
2019-03-06T09:58:34.147Z,1005.83
2019-03-06T09:59:34.123Z,1005.88
2019-03-06T10:00:34.105Z,1005.95
2019-03-06T10:01:34.167Z,1005.97
2019-03-06T10:02:34.084Z,1005.86
2019-03-06T10:03:34.077Z,1005.83
2019-03-06T10:04:34.061Z,1005.91
2019-03-06T10:05:34.049Z,1005.83
2019-03-06T10:06:34.044Z,1005.80
2019-03-06T10:07:34.069Z,1005.92
2019-03-06T10:08:34.018Z,1005.85
2019-03-06T10:09:34.005Z,1005.76
2019-03-06T10:10:33.995Z,1005.81
2019-03-06T10:11:33.989Z,1005.73
2019-03-06T10:12:34.011Z,1005.72
2019-03-06T10:13:33.972Z,1005.81
2019-03-06T10:14:33.967Z,1005.81
2019-03-06T10:15:33.944Z,1005.73
2019-03-06T10:16:33.935Z,1005.83
2019-03-06T10:17:33.915Z,1005.82
2019-03-06T10:18:33.943Z,1005.67
2019-03-06T10:19:33.895Z,1005.70
2019-03-06T10:20:33.937Z,1005.80
2019-03-06T10:21:33.871Z,1005.74
2019-03-06T10:22:33.864Z,1005.77
2019-03-06T10:23:33.864Z,1005.77
2019-03-06T10:24:33.885Z,1005.70
2019-03-06T10:25:33.890Z,1005.66
2019-03-06T10:26:33.818Z,1005.56
2019-03-06T10:27:33.813Z,1005.60
2019-03-06T10:28:33.798Z,1005.57
2019-03-06T10:29:33.845Z,1005.55
2019-03-06T10:30:33.775Z,1005.58
2019-03-06T10:31:33.764Z,1005.55
2019-03-06T10:32:33.754Z,1005.60
2019-03-06T10:33:33.737Z,1005.70
2019-03-06T10:34:33.731Z,1005.46
2019-03-06T10:35:33.768Z,1005.43
2019-03-06T10:36:33.712Z,1005.45
2019-03-06T10:37:33.693Z,1005.51
2019-03-06T10:38:33.686Z,1005.32
2019-03-06T10:39:33.680Z,1005.40
2019-03-06T10:40:33.721Z,1005.42
2019-03-06T10:41:33.654Z,1005.48
2019-03-06T10:42:33.638Z,1005.46
2019-03-06T10:43:33.652Z,1005.49
2019-03-06T10:44:33.622Z,1005.40
2019-03-06T10:45:41.345Z,1005.33
2019-03-06T10:46:34.602Z,1005.40
2019-03-06T10:47:33.585Z,1005.31
2019-03-06T10:48:33.588Z,1005.23
2019-03-06T10:49:33.565Z,1005.26
2019-03-06T10:50:33.585Z,1005.33
2019-03-06T10:51:33.538Z,1005.24
2019-03-06T10:52:33.532Z,1005.18
2019-03-06T10:53:41.132Z,1005.24
2019-03-06T10:54:37.879Z,1005.23
2019-03-06T10:55:34.529Z,1005.28
2019-03-06T10:56:33.539Z,1005.22
2019-03-06T10:57:33.480Z,1005.16
2019-03-06T10:58:33.464Z,1005.16
2019-03-06T10:59:33.449Z,1005.17
2019-03-06T11:00:33.440Z,1005.14
2019-03-06T11:01:33.428Z,1005.07
2019-03-06T11:02:33.579Z,1005.06
2019-03-06T11:03:33.410Z,1005.03
2019-03-06T11:04:33.399Z,1005.04
2019-03-06T11:05:33.389Z,1005.00
2019-03-06T11:06:33.378Z,1004.98
2019-03-06T11:07:33.368Z,1005.08
2019-03-06T11:08:33.425Z,1005.03
2019-03-06T11:09:33.343Z,1005.09
2019-03-06T11:10:33.339Z,1005.08
2019-03-06T11:11:33.324Z,1004.97
2019-03-06T11:12:33.343Z,1004.97
2019-03-06T11:13:33.297Z,1005.00
2019-03-06T11:14:33.287Z,1004.96
2019-03-06T11:15:33.270Z,1004.92
2019-03-06T11:16:34.920Z,1004.92
2019-03-06T11:17:33.292Z,1004.89
2019-03-06T11:18:33.248Z,1004.86
2019-03-06T11:19:33.231Z,1004.96
2019-03-06T11:20:33.224Z,1004.88
2019-03-06T11:21:33.219Z,1004.78
2019-03-06T11:22:33.194Z,1004.74
2019-03-06T11:23:33.200Z,1004.76
2019-03-06T11:24:33.207Z,1004.75
2019-03-06T11:25:33.162Z,1004.70
2019-03-06T11:26:33.153Z,1004.69
2019-03-06T11:27:33.140Z,1004.66
2019-03-06T11:28:33.130Z,1004.72
2019-03-06T11:29:33.133Z,1004.86
2019-03-06T11:30:33.107Z,1004.68
2019-03-06T11:31:33.093Z,1004.67
2019-03-06T11:32:33.081Z,1004.60
2019-03-06T11:33:33.120Z,1004.65
2019-03-06T11:34:33.157Z,1004.78
2019-03-06T11:35:34.184Z,1004.64
2019-03-06T11:36:33.043Z,1004.64
2019-03-06T11:37:33.029Z,1004.63
2019-03-06T11:38:33.018Z,1004.58
2019-03-06T11:39:33.016Z,1004.62
2019-03-06T11:40:33.029Z,1004.67
2019-03-06T11:41:32.980Z,1004.63
2019-03-06T11:42:32.971Z,1004.66
2019-03-06T11:43:32.960Z,1004.54
2019-03-06T11:44:32.952Z,1004.57
2019-03-06T11:45:33.036Z,1004.56
2019-03-06T11:46:32.926Z,1004.55
2019-03-06T11:47:32.930Z,1004.59
2019-03-06T11:48:32.908Z,1004.48
2019-03-06T11:49:32.897Z,1004.47
2019-03-06T11:50:40.673Z,1004.45
2019-03-06T11:51:33.911Z,1004.52
2019-03-06T11:52:34.871Z,1004.45
2019-03-06T11:53:33.033Z,1004.44
2019-03-06T11:54:32.853Z,1004.37
2019-03-06T11:55:32.862Z,1004.39
2019-03-06T11:56:32.889Z,1004.40
2019-03-06T11:57:33.451Z,1004.39
2019-03-06T11:58:32.798Z,1004.34
2019-03-06T11:59:32.781Z,1004.27
2019-03-06T12:00:32.818Z,1004.30
2019-03-06T12:01:32.831Z,1004.26
2019-03-06T12:02:32.754Z,1004.24
2019-03-06T12:03:32.737Z,1004.20
2019-03-06T12:04:32.728Z,1004.24
2019-03-06T12:05:32.723Z,1004.15
2019-03-06T12:06:32.705Z,1004.13